createdAt,value
2023-12-03T00:01:43.805Z,15.90
2023-12-03T00:04:10.803Z,15.90
2023-12-03T00:06:40.150Z,15.90
2023-12-03T00:09:08.293Z,15.90
2023-12-03T00:11:35.188Z,15.90
2023-12-03T00:14:02.045Z,15.90
2023-12-03T00:16:28.933Z,15.90
2023-12-03T00:18:56.014Z,16.00
2023-12-03T00:21:22.946Z,16.00
2023-12-03T00:23:49.907Z,16.00
2023-12-03T00:26:16.811Z,16.00
2023-12-03T00:28:46.905Z,16.00
2023-12-03T00:31:13.760Z,16.00
2023-12-03T00:33:40.704Z,16.00
2023-12-03T00:36:08.097Z,16.00
2023-12-03T00:38:35.025Z,16.00
2023-12-03T00:41:02.577Z,16.00
2023-12-03T00:43:29.454Z,16.00
2023-12-03T00:45:58.818Z,16.00
2023-12-03T00:48:25.878Z,15.90
2023-12-03T00:50:52.881Z,16.00
2023-12-03T00:53:19.779Z,15.90
2023-12-03T00:55:46.653Z,16.00
2023-12-03T00:58:13.494Z,15.90
2023-12-03T01:00:40.452Z,15.90
2023-12-03T01:03:07.324Z,15.90
2023-12-03T01:05:34.348Z,15.90
2023-12-03T01:08:01.319Z,16.00
2023-12-03T01:10:28.174Z,16.00
2023-12-03T01:12:55.074Z,16.00
2023-12-03T01:15:22.226Z,15.90
2023-12-03T01:17:49.168Z,15.90
2023-12-03T01:20:16.095Z,16.00
2023-12-03T01:22:42.990Z,15.90
2023-12-03T01:25:09.916Z,16.00
2023-12-03T01:27:36.839Z,16.00
2023-12-03T01:30:04.014Z,16.00
2023-12-03T01:32:30.913Z,16.00
2023-12-03T01:34:57.791Z,15.90
2023-12-03T01:37:24.732Z,15.90
2023-12-03T01:39:51.730Z,16.00
2023-12-03T01:42:18.713Z,16.00
2023-12-03T01:44:45.581Z,16.00
2023-12-03T01:47:15.013Z,16.00
2023-12-03T01:49:42.038Z,16.00
2023-12-03T01:52:08.984Z,16.00
2023-12-03T01:54:37.184Z,16.00
2023-12-03T01:57:04.936Z,16.10
2023-12-03T01:59:33.397Z,16.00
2023-12-03T02:02:00.375Z,16.00
2023-12-03T02:04:27.359Z,16.00
2023-12-03T02:06:54.262Z,16.00
2023-12-03T02:09:21.692Z,16.00
2023-12-03T02:11:48.804Z,16.00
2023-12-03T02:14:15.774Z,16.00
2023-12-03T02:16:49.428Z,16.00
2023-12-03T02:19:16.632Z,16.00
2023-12-03T02:21:43.793Z,16.00
2023-12-03T02:24:10.763Z,16.00
2023-12-03T02:26:37.609Z,16.00
2023-12-03T02:29:04.529Z,16.00
2023-12-03T02:31:31.855Z,16.00
2023-12-03T02:34:10.970Z,16.00
2023-12-03T02:36:38.860Z,16.00
2023-12-03T02:39:06.508Z,16.00
2023-12-03T02:41:33.683Z,16.00
2023-12-03T02:44:00.854Z,16.00
2023-12-03T02:46:27.742Z,16.00
2023-12-03T02:48:54.772Z,16.00
2023-12-03T02:51:21.858Z,16.00
2023-12-03T02:53:49.474Z,16.10
2023-12-03T02:56:17.520Z,16.00
2023-12-03T02:58:44.760Z,16.10
2023-12-03T03:01:11.645Z,16.10
2023-12-03T03:03:38.563Z,16.00
2023-12-03T03:06:05.645Z,16.00
2023-12-03T03:08:32.518Z,16.00
2023-12-03T03:10:59.378Z,16.00
2023-12-03T03:13:26.460Z,16.00
2023-12-03T03:15:54.901Z,16.00
2023-12-03T03:18:22.384Z,16.00
2023-12-03T03:20:49.334Z,16.00
2023-12-03T03:23:16.238Z,16.00
2023-12-03T03:25:43.350Z,16.00
2023-12-03T03:28:10.227Z,16.00
2023-12-03T03:30:37.078Z,16.00
2023-12-03T03:33:04.124Z,16.00
2023-12-03T03:35:31.187Z,16.00
2023-12-03T03:37:58.092Z,15.90
2023-12-03T03:40:24.946Z,15.90
2023-12-03T03:42:51.876Z,16.00
2023-12-03T03:45:18.763Z,16.00
2023-12-03T03:47:45.627Z,16.00
2023-12-03T03:50:12.558Z,16.00
2023-12-03T03:52:39.413Z,16.00
2023-12-03T03:55:06.553Z,16.00
2023-12-03T03:57:33.686Z,16.00
2023-12-03T04:00:00.582Z,16.00
2023-12-03T04:02:27.502Z,16.00
2023-12-03T04:04:54.412Z,16.00
2023-12-03T04:07:22.073Z,16.10
2023-12-03T04:09:49.279Z,16.10
2023-12-03T04:12:16.152Z,16.10
2023-12-03T04:14:43.071Z,16.10
2023-12-03T04:17:09.954Z,16.10
2023-12-03T04:19:37.739Z,16.10
2023-12-03T04:22:04.829Z,16.10
2023-12-03T04:24:31.906Z,16.10
2023-12-03T04:26:58.842Z,16.10
2023-12-03T04:29:25.692Z,16.10
2023-12-03T04:31:52.931Z,16.10
2023-12-03T04:34:19.853Z,16.10
2023-12-03T04:36:46.736Z,16.10
2023-12-03T04:39:13.714Z,16.10
2023-12-03T04:41:40.629Z,16.20
2023-12-03T04:44:07.454Z,16.10
2023-12-03T04:46:34.488Z,16.20
2023-12-03T04:49:01.961Z,16.20
2023-12-03T04:51:28.995Z,16.20
2023-12-03T04:53:55.915Z,16.20
2023-12-03T04:56:22.758Z,16.20
2023-12-03T04:58:49.679Z,16.20
2023-12-03T05:01:18.707Z,16.20
2023-12-03T05:03:46.843Z,16.20
2023-12-03T05:06:14.086Z,16.20
2023-12-03T05:08:41.039Z,16.20
2023-12-03T05:11:08.225Z,16.20
2023-12-03T05:13:35.701Z,16.20
2023-12-03T05:16:03.683Z,16.20
2023-12-03T05:18:30.647Z,16.20
2023-12-03T05:20:58.572Z,16.20
2023-12-03T05:23:26.089Z,16.20
2023-12-03T05:25:53.516Z,16.20
2023-12-03T05:28:20.542Z,16.20
2023-12-03T05:30:47.776Z,16.20
2023-12-03T05:33:15.055Z,16.20
2023-12-03T05:35:42.570Z,16.20
2023-12-03T05:38:09.547Z,16.20
2023-12-03T05:40:37.044Z,16.20
2023-12-03T05:43:04.022Z,16.20
2023-12-03T05:45:31.035Z,16.20
2023-12-03T05:47:58.055Z,16.20
2023-12-03T05:50:25.865Z,16.20
2023-12-03T05:52:52.739Z,16.20
2023-12-03T05:55:19.591Z,16.20
2023-12-03T05:57:46.473Z,16.20
2023-12-03T06:00:14.177Z,16.20
2023-12-03T06:02:41.075Z,16.20
2023-12-03T06:05:08.468Z,16.20
2023-12-03T06:07:35.526Z,16.20
2023-12-03T06:10:02.516Z,16.20
2023-12-03T06:12:29.464Z,16.20
2023-12-03T06:14:56.629Z,16.20
2023-12-03T06:17:23.496Z,16.20
2023-12-03T06:19:50.337Z,16.20
2023-12-03T06:22:17.210Z,16.20
2023-12-03T06:24:44.121Z,16.20
2023-12-03T06:27:11.046Z,16.20
2023-12-03T06:29:37.930Z,16.20
2023-12-03T06:32:04.869Z,16.20
2023-12-03T06:34:31.787Z,16.20
2023-12-03T06:37:00.416Z,16.20
2023-12-03T06:39:27.369Z,16.20
2023-12-03T06:41:54.228Z,16.20
2023-12-03T06:44:31.082Z,16.20
2023-12-03T06:47:06.341Z,16.20
2023-12-03T06:49:33.292Z,16.20
2023-12-03T06:52:00.668Z,16.20
2023-12-03T06:54:27.579Z,16.20
2023-12-03T06:56:54.452Z,16.20
2023-12-03T06:59:21.281Z,16.20
2023-12-03T07:01:48.173Z,16.20
2023-12-03T07:04:15.101Z,16.20
2023-12-03T07:06:42.100Z,16.20
2023-12-03T07:09:36.240Z,16.20
2023-12-03T07:11:55.798Z,16.20
2023-12-03T07:14:22.630Z,16.20
2023-12-03T07:16:49.518Z,16.20
2023-12-03T07:19:16.387Z,16.20
2023-12-03T07:21:43.365Z,16.20
2023-12-03T07:24:10.257Z,16.20
2023-12-03T07:26:37.117Z,16.30
2023-12-03T07:29:04.082Z,16.20
2023-12-03T07:31:32.288Z,16.20
2023-12-03T07:33:59.216Z,16.20
2023-12-03T07:36:26.807Z,16.20
2023-12-03T07:38:53.741Z,16.20
2023-12-03T07:41:20.581Z,16.30
2023-12-03T07:43:47.451Z,16.30
2023-12-03T07:46:18.209Z,16.20
2023-12-03T07:48:45.960Z,16.20
2023-12-03T07:51:13.403Z,16.20
2023-12-03T07:53:41.488Z,16.30
2023-12-03T07:56:09.124Z,16.30
2023-12-03T07:58:37.087Z,16.30
2023-12-03T08:01:06.549Z,16.30
2023-12-03T08:03:33.918Z,16.30
2023-12-03T08:06:01.087Z,16.30
2023-12-03T08:08:28.292Z,16.30
2023-12-03T08:10:55.158Z,16.30
2023-12-03T08:13:22.044Z,16.30
2023-12-03T08:15:49.000Z,16.30
2023-12-03T08:18:16.038Z,16.30
2023-12-03T08:20:42.995Z,16.30
2023-12-03T08:23:09.852Z,16.30
2023-12-03T08:25:36.839Z,16.30
2023-12-03T08:28:06.210Z,16.30
2023-12-03T08:30:33.077Z,16.30
2023-12-03T08:32:59.975Z,16.30
2023-12-03T08:35:26.894Z,16.30
2023-12-03T08:37:53.768Z,16.30
2023-12-03T08:40:20.665Z,16.30
2023-12-03T08:42:47.597Z,16.40
2023-12-03T08:45:14.871Z,16.40
2023-12-03T08:47:42.558Z,16.40
2023-12-03T08:50:09.601Z,16.40
2023-12-03T08:52:36.523Z,16.40
2023-12-03T08:55:04.123Z,16.30
2023-12-03T08:57:32.152Z,16.40
2023-12-03T08:59:59.260Z,16.40
2023-12-03T09:02:26.185Z,16.40
2023-12-03T09:04:53.244Z,16.40
2023-12-03T09:07:20.328Z,16.40
2023-12-03T09:09:47.281Z,16.40
2023-12-03T09:12:17.084Z,16.40
2023-12-03T09:14:44.138Z,16.40
2023-12-03T09:17:10.973Z,16.40
2023-12-03T09:19:37.876Z,16.40
2023-12-03T09:22:05.025Z,16.40
2023-12-03T09:24:32.268Z,16.40
2023-12-03T09:26:59.140Z,16.40
2023-12-03T09:29:26.056Z,16.40
2023-12-03T09:31:55.434Z,16.40
2023-12-03T09:34:23.625Z,16.40
2023-12-03T09:36:50.596Z,16.40
2023-12-03T09:39:17.875Z,16.40
2023-12-03T09:41:49.533Z,16.40
2023-12-03T09:44:26.638Z,16.40
2023-12-03T09:46:55.334Z,16.40
2023-12-03T09:49:29.509Z,16.40
2023-12-03T09:52:01.456Z,16.30
2023-12-03T09:54:29.810Z,16.30
2023-12-03T09:57:00.007Z,16.40
2023-12-03T09:59:28.909Z,16.40
2023-12-03T10:01:58.275Z,16.40
2023-12-03T10:04:25.351Z,16.40
2023-12-03T10:06:56.830Z,16.40
2023-12-03T10:09:23.868Z,16.40
2023-12-03T10:11:56.095Z,16.40
2023-12-03T10:14:23.003Z,16.40
2023-12-03T10:16:50.847Z,16.30
2023-12-03T10:19:29.190Z,16.30
2023-12-03T10:21:58.558Z,16.30
2023-12-03T10:24:25.497Z,16.30
2023-12-03T10:26:57.166Z,16.30
2023-12-03T10:29:27.760Z,16.30
2023-12-03T10:31:54.980Z,16.30
2023-12-03T10:34:22.620Z,16.30
2023-12-03T10:36:51.137Z,16.30
2023-12-03T10:39:19.118Z,16.30
2023-12-03T10:41:47.597Z,16.30
2023-12-03T10:44:19.145Z,16.30
2023-12-03T10:46:46.596Z,16.30
2023-12-03T10:49:14.784Z,16.30
2023-12-03T10:51:43.794Z,16.30
2023-12-03T10:54:12.033Z,16.30
2023-12-03T10:56:38.943Z,16.10
2023-12-03T10:59:10.748Z,15.90
2023-12-03T11:01:47.859Z,15.90
2023-12-03T11:04:28.461Z,15.90
2023-12-03T11:06:56.882Z,15.90
2023-12-03T11:09:24.769Z,15.90
2023-12-03T11:11:52.310Z,15.80
2023-12-03T11:14:20.540Z,15.90
2023-12-03T11:17:00.094Z,15.90
2023-12-03T11:19:29.042Z,15.90
2023-12-03T11:22:29.137Z,16.00
2023-12-03T11:25:19.686Z,16.00
2023-12-03T11:27:47.335Z,16.00
2023-12-03T11:30:16.212Z,16.00
2023-12-03T11:32:48.325Z,16.00
2023-12-03T11:35:17.942Z,16.00
2023-12-03T11:37:45.481Z,16.00
2023-12-03T11:40:21.274Z,16.00
2023-12-03T11:42:50.034Z,16.00
2023-12-03T11:45:28.358Z,16.00
2023-12-03T11:48:05.751Z,16.00
2023-12-03T11:50:35.283Z,16.00
2023-12-03T11:53:02.879Z,16.00
2023-12-03T11:55:33.482Z,16.00
2023-12-03T11:58:00.867Z,16.00
2023-12-03T12:00:29.083Z,16.00
2023-12-03T12:02:56.045Z,16.00
2023-12-03T12:05:22.977Z,16.00
2023-12-03T12:08:03.985Z,16.10
2023-12-03T12:10:35.606Z,16.20
2023-12-03T12:13:05.730Z,16.20
2023-12-03T12:15:32.908Z,16.20
2023-12-03T12:17:59.932Z,16.20
2023-12-03T12:20:31.273Z,16.30
2023-12-03T12:22:59.347Z,16.30
2023-12-03T12:25:28.160Z,16.40
2023-12-03T12:27:56.040Z,16.30
2023-12-03T12:30:34.674Z,16.30
2023-12-03T12:33:06.439Z,16.20
2023-12-03T12:35:34.579Z,16.20
2023-12-03T12:38:08.099Z,16.20
2023-12-03T12:40:42.460Z,16.30
2023-12-03T12:43:11.749Z,16.30
2023-12-03T12:45:40.162Z,16.30
2023-12-03T12:48:28.012Z,16.30
2023-12-03T12:50:55.312Z,16.30
2023-12-03T12:53:22.322Z,16.30
2023-12-03T12:55:51.488Z,16.40
2023-12-03T12:58:18.700Z,16.30
2023-12-03T13:00:45.692Z,16.40
2023-12-03T13:03:12.561Z,16.40
2023-12-03T13:05:40.526Z,16.40
2023-12-03T13:08:07.878Z,16.40
2023-12-03T13:10:35.660Z,16.40
2023-12-03T13:13:03.022Z,16.40
2023-12-03T13:15:30.107Z,16.40
2023-12-03T13:18:05.874Z,16.40
2023-12-03T13:20:39.823Z,16.40
2023-12-03T13:23:09.252Z,16.40
2023-12-03T13:25:36.904Z,16.40
2023-12-03T13:28:03.996Z,16.50
2023-12-03T13:30:30.942Z,16.50
2023-12-03T13:32:59.647Z,16.50
2023-12-03T13:35:26.807Z,16.50
2023-12-03T13:37:54.187Z,16.50
2023-12-03T13:40:21.151Z,16.50
2023-12-03T13:42:54.780Z,16.50
2023-12-03T13:45:22.742Z,16.50
2023-12-03T13:47:50.148Z,16.50
2023-12-03T13:50:17.258Z,16.50
2023-12-03T13:52:44.522Z,16.50
2023-12-03T13:55:11.948Z,16.50
2023-12-03T13:57:39.230Z,16.50
2023-12-03T14:00:07.515Z,16.60
2023-12-03T14:02:41.764Z,16.60
2023-12-03T14:07:40.022Z,16.60
2023-12-03T14:10:10.193Z,16.60
2023-12-03T14:12:37.303Z,16.60
2023-12-03T14:15:06.085Z,16.60
2023-12-03T14:17:33.294Z,16.60
2023-12-03T14:20:00.466Z,16.60
2023-12-03T14:22:27.380Z,16.60
2023-12-03T14:24:54.351Z,16.60
2023-12-03T14:27:21.782Z,16.60
2023-12-03T14:29:48.688Z,16.60
2023-12-03T14:32:15.625Z,16.60
2023-12-03T14:34:42.644Z,16.60
2023-12-03T14:37:09.610Z,16.60
2023-12-03T14:39:36.492Z,16.60
2023-12-03T14:42:03.724Z,16.60
2023-12-03T14:44:30.712Z,16.60
2023-12-03T14:46:57.620Z,16.60
2023-12-03T14:49:24.707Z,16.60
2023-12-03T14:51:51.707Z,16.60
2023-12-03T14:54:21.565Z,16.50
2023-12-03T14:56:48.956Z,16.50
2023-12-03T14:59:15.944Z,16.50
2023-12-03T15:01:42.997Z,16.50
2023-12-03T15:04:10.073Z,16.50
2023-12-03T15:06:37.119Z,16.40
2023-12-03T15:09:04.474Z,16.50
2023-12-03T15:11:31.527Z,16.50
2023-12-03T15:13:58.554Z,16.40
2023-12-03T15:16:27.727Z,16.40
2023-12-03T15:18:54.856Z,16.40
2023-12-03T15:21:21.763Z,16.40
2023-12-03T15:23:48.710Z,16.40
2023-12-03T15:26:15.665Z,16.40
2023-12-03T15:28:43.686Z,16.50
2023-12-03T15:31:11.761Z,16.50
2023-12-03T15:33:39.336Z,16.50
2023-12-03T15:36:07.449Z,16.50
2023-12-03T15:38:34.557Z,16.60
2023-12-03T15:41:01.888Z,16.60
2023-12-03T15:43:34.321Z,16.50
2023-12-03T15:46:08.965Z,16.50
2023-12-03T15:48:36.420Z,16.50
2023-12-03T15:51:03.636Z,16.60
2023-12-03T15:53:30.676Z,16.60
2023-12-03T15:55:58.480Z,16.50
2023-12-03T15:58:26.044Z,16.60
2023-12-03T16:00:53.590Z,16.60
2023-12-03T16:03:21.613Z,16.60
2023-12-03T16:05:49.633Z,16.60
2023-12-03T16:08:16.863Z,16.60
2023-12-03T16:10:43.979Z,16.60
2023-12-03T16:13:11.125Z,16.60
2023-12-03T16:15:38.117Z,16.60
2023-12-03T16:18:05.132Z,16.60
2023-12-03T16:20:32.059Z,16.60
2023-12-03T16:22:59.016Z,16.60
2023-12-03T16:25:25.921Z,16.60
2023-12-03T16:27:52.846Z,16.60
2023-12-03T16:30:19.781Z,16.50
2023-12-03T16:32:46.761Z,16.50
2023-12-03T16:35:13.972Z,16.40
2023-12-03T16:37:41.523Z,16.40
2023-12-03T16:40:09.929Z,16.40
2023-12-03T16:42:37.177Z,16.30
2023-12-03T16:45:05.268Z,16.30
2023-12-03T16:47:32.347Z,16.30
2023-12-03T16:50:01.266Z,16.30
2023-12-03T16:52:30.237Z,16.30
2023-12-03T16:54:57.746Z,16.30
2023-12-03T16:57:25.011Z,16.40
2023-12-03T16:59:52.183Z,16.40
2023-12-03T17:02:19.555Z,16.40
2023-12-03T17:04:46.533Z,16.40
2023-12-03T17:07:13.560Z,16.40
2023-12-03T17:09:40.614Z,16.40
2023-12-03T17:12:07.766Z,16.40
2023-12-03T17:14:34.792Z,16.50
2023-12-03T17:17:01.973Z,16.50
2023-12-03T17:19:29.044Z,16.60
2023-12-03T17:21:57.941Z,16.60
2023-12-03T17:24:24.981Z,16.60
2023-12-03T17:26:51.956Z,16.60
2023-12-03T17:29:19.179Z,16.60
2023-12-03T17:31:46.648Z,16.60
2023-12-03T17:34:13.888Z,16.60
2023-12-03T17:36:40.897Z,16.60
2023-12-03T17:39:09.310Z,16.60
2023-12-03T17:41:36.541Z,16.50
2023-12-03T17:44:03.706Z,16.50
2023-12-03T17:46:30.588Z,16.50
2023-12-03T17:48:57.665Z,16.50
2023-12-03T17:51:28.604Z,16.60
2023-12-03T17:53:55.714Z,16.60
2023-12-03T17:56:22.606Z,16.60
2023-12-03T17:58:49.459Z,16.60
2023-12-03T18:01:19.292Z,16.50
2023-12-03T18:03:48.131Z,16.60
2023-12-03T18:06:15.185Z,16.60
2023-12-03T18:08:42.104Z,16.60
2023-12-03T18:11:09.067Z,16.50
2023-12-03T18:13:36.003Z,16.50
2023-12-03T18:16:04.188Z,16.50
2023-12-03T18:18:31.324Z,16.50
2023-12-03T18:20:58.375Z,16.50
2023-12-03T18:23:26.527Z,16.50
2023-12-03T18:25:53.839Z,16.40
2023-12-03T18:28:20.801Z,16.40
2023-12-03T18:30:49.160Z,16.40
2023-12-03T18:33:18.453Z,16.30
2023-12-03T18:35:45.551Z,16.30
2023-12-03T18:38:13.160Z,16.30
2023-12-03T18:40:44.879Z,16.40
2023-12-03T18:43:11.997Z,16.40
2023-12-03T18:45:39.070Z,16.50
2023-12-03T18:48:06.098Z,16.50
2023-12-03T18:50:33.331Z,16.60
2023-12-03T18:53:00.372Z,16.60
2023-12-03T18:55:27.286Z,16.60
2023-12-03T18:57:54.248Z,16.60
2023-12-03T19:00:22.005Z,16.70
2023-12-03T19:02:49.777Z,16.70
2023-12-03T19:05:17.206Z,16.70
2023-12-03T19:07:50.196Z,16.70
2023-12-03T19:10:19.842Z,16.80
2023-12-03T19:12:53.452Z,16.70
2023-12-03T19:15:23.238Z,16.80
2023-12-03T19:17:50.124Z,16.80
2023-12-03T19:20:17.088Z,16.80
2023-12-03T19:22:43.972Z,16.80
2023-12-03T19:25:10.976Z,16.80
2023-12-03T19:27:37.910Z,16.80
2023-12-03T19:30:08.347Z,16.80
2023-12-03T19:32:35.538Z,16.80
2023-12-03T19:35:04.319Z,16.80
2023-12-03T19:37:31.380Z,16.80
2023-12-03T19:39:59.757Z,16.80
2023-12-03T19:42:26.675Z,16.80
2023-12-03T19:44:53.685Z,16.80
2023-12-03T19:47:20.664Z,16.80
2023-12-03T19:49:47.959Z,16.80
2023-12-03T19:52:15.120Z,16.80
2023-12-03T19:54:42.784Z,16.80
2023-12-03T19:57:10.009Z,16.80
2023-12-03T19:59:36.902Z,16.80
2023-12-03T20:02:03.979Z,16.80
2023-12-03T20:04:31.014Z,16.80
2023-12-03T20:06:59.474Z,16.80
2023-12-03T20:09:26.536Z,16.80
2023-12-03T20:11:53.441Z,16.80
2023-12-03T20:14:22.491Z,16.80
2023-12-03T20:16:51.401Z,16.70
2023-12-03T20:19:18.383Z,16.70
2023-12-03T20:21:45.267Z,16.70
2023-12-03T20:24:12.332Z,16.70
2023-12-03T20:26:39.345Z,16.70
2023-12-03T20:29:06.244Z,16.70
2023-12-03T20:31:34.659Z,16.70
2023-12-03T20:34:02.973Z,16.80
2023-12-03T20:36:36.682Z,16.80
2023-12-03T20:39:07.109Z,16.80
2023-12-03T20:41:34.028Z,16.80
2023-12-03T20:44:02.745Z,16.70
2023-12-03T20:46:29.691Z,16.70
2023-12-03T20:48:56.763Z,16.70
2023-12-03T20:51:24.361Z,16.70
2023-12-03T20:53:52.686Z,16.70
2023-12-03T20:56:19.962Z,16.70
2023-12-03T20:58:46.970Z,16.70
2023-12-03T21:01:13.958Z,16.70
2023-12-03T21:03:41.199Z,16.70
2023-12-03T21:06:08.643Z,16.70
2023-12-03T21:08:35.591Z,16.70
2023-12-03T21:11:02.967Z,16.70
2023-12-03T21:13:29.857Z,16.70
2023-12-03T21:15:58.401Z,16.70
2023-12-03T21:18:25.571Z,16.70
2023-12-03T21:20:52.550Z,16.70
2023-12-03T21:23:19.431Z,16.70
2023-12-03T21:25:46.332Z,16.70
2023-12-03T21:28:13.549Z,16.70
2023-12-03T21:30:40.458Z,16.70
2023-12-03T21:33:08.415Z,16.70
2023-12-03T21:35:35.366Z,16.70
2023-12-03T21:38:07.456Z,16.70
2023-12-03T21:40:37.965Z,16.70
2023-12-03T21:43:07.814Z,16.70
2023-12-03T21:45:34.763Z,16.70
2023-12-03T21:48:01.914Z,16.70
2023-12-03T21:50:28.854Z,16.60
2023-12-03T21:52:55.822Z,16.60
2023-12-03T21:55:22.729Z,16.60
2023-12-03T21:57:49.597Z,16.70
2023-12-03T22:00:18.686Z,16.60
2023-12-03T22:02:45.789Z,16.60
2023-12-03T22:05:14.493Z,16.60
2023-12-03T22:07:42.713Z,16.60
2023-12-03T22:10:10.146Z,16.50
2023-12-03T22:12:37.356Z,16.50
2023-12-03T22:15:04.879Z,16.50
2023-12-03T22:17:31.810Z,16.50
2023-12-03T22:19:58.943Z,16.60
2023-12-03T22:22:25.969Z,16.50
2023-12-03T22:24:52.979Z,16.60
2023-12-03T22:27:19.894Z,16.60
2023-12-03T22:29:50.488Z,16.60
2023-12-03T22:32:21.549Z,16.60
2023-12-03T22:34:48.419Z,16.60
2023-12-03T22:37:15.309Z,16.50
2023-12-03T22:39:42.666Z,16.50
2023-12-03T22:42:09.611Z,16.50
2023-12-03T22:44:36.511Z,16.50
2023-12-03T22:47:03.438Z,16.50
2023-12-03T22:49:30.311Z,16.50
2023-12-03T22:51:58.350Z,16.50
2023-12-03T22:54:25.294Z,16.50
2023-12-03T22:56:53.208Z,16.50
2023-12-03T22:59:20.421Z,16.50
2023-12-03T23:01:47.336Z,16.50
2023-12-03T23:04:14.428Z,16.40
2023-12-03T23:06:41.447Z,16.50
2023-12-03T23:09:08.327Z,16.50
2023-12-03T23:11:36.928Z,16.50
2023-12-03T23:14:04.270Z,16.50
2023-12-03T23:16:31.188Z,16.40
2023-12-03T23:18:58.164Z,16.50
2023-12-03T23:21:25.075Z,16.50
2023-12-03T23:23:52.338Z,16.50
2023-12-03T23:26:19.234Z,16.50
2023-12-03T23:28:46.911Z,16.50
2023-12-03T23:31:13.805Z,16.50
2023-12-03T23:33:40.778Z,16.50
2023-12-03T23:36:08.188Z,16.50
2023-12-03T23:38:35.143Z,16.50
2023-12-03T23:41:01.978Z,16.50
2023-12-03T23:43:28.924Z,16.50
2023-12-03T23:45:55.814Z,16.50
2023-12-03T23:48:22.930Z,16.50
2023-12-03T23:50:49.914Z,16.50
2023-12-03T23:53:16.771Z,16.50
2023-12-03T23:55:43.630Z,16.50
2023-12-03T23:58:10.450Z,16.50
